KHWD/HWD METAR and TAF weather

Enter ICAO airport designator
Station Type Date Time Source
KHWD METAR 2021/09/24 02:54 UTC NOAA

KHWD 240254Z 29003KT 10SM CLR 21/13 A2986 RMK AO2 SLP118 T02060133 53006


Station Type Date Time Source
KHWD Decoded METAR 2021/09/24 02:54 UTC NOAA

HAYWARD AIR TERMINAL, CA, United States (KHWD) 37-40N 122-07W 21M
Sep 23, 2021 - 10:54 PM EDT / 2021.09.24 0254 UTC
Wind: from the WNW (290 degrees) at 3 MPH (3 KT):0
Visibility: 10 mile(s):0
Sky conditions: clear
Temperature: 69.1 F (20.6 C)
Dew Point: 55.9 F (13.3 C)
Relative Humidity: 62%
Pressure (altimeter): 29.86 in. Hg (1011 hPa)
Pressure tendency: 0.02 inches (0.6 hPa) higher than three hours ago
ob: KHWD 240254Z 29003KT 10SM CLR 21/13 A2986 RMK AO2 SLP118 T02060133 53006
cycle: 3

Station Type Date Time Source
KHWD TAF UTC NOAA

Error!

Example: see airport list